sensor_id;sensor_type;location;lat;lon;timestamp;pressure;altitude;pressure_sealevel;temperature;humidity
31162;BME280;17796;49.296;-117.656;2022-12-07T00:02:24;96500;;;-5.31097;61.16161
31162;BME280;17796;49.296;-117.656;2022-12-07T00:17:27;96500;;;-5.35003;61.89614
31162;BME280;17796;49.296;-117.656;2022-12-07T00:32:31;96500;;;-6.3379;65.16844
31162;BME280;17796;49.296;-117.656;2022-12-07T00:47:36;96500;;;-5.56532;62.32148
31162;BME280;17796;49.296;-117.656;2022-12-07T01:02:40;96500;;;-5.89143;62.82038
31162;BME280;17796;49.296;-117.656;2022-12-07T01:17:44;96600;;;-5.94923;64.23336
31162;BME280;17796;49.296;-117.656;2022-12-07T01:32:48;96600;;;-6.23184;65.63487
31162;BME280;17796;49.296;-117.656;2022-12-07T01:47:53;96600;;;-6.07116;65.39231
31162;BME280;17796;49.296;-117.656;2022-12-07T02:03:01;96600;;;-6.17087;65.56357
31162;BME280;17796;49.296;-117.656;2022-12-07T02:18:11;96600;;;-6.54652;67.88358
31162;BME280;17796;49.296;-117.656;2022-12-07T02:33:24;96600;;;-6.31853;67.29122
31162;BME280;17796;49.296;-117.656;2022-12-07T02:48:34;96600;;;-6.16166;66.52548
31162;BME280;17796;49.296;-117.656;2022-12-07T03:03:43;96600;;;-5.80602;65.48655
31162;BME280;17796;49.296;-117.656;2022-12-07T03:18:57;96600;;;-6.07688;66.35882
31162;BME280;17796;49.296;-117.656;2022-12-07T03:34:05;96700;;;-6.20167;67.42949
31162;BME280;17796;49.296;-117.656;2022-12-07T03:49:16;96700;;;-5.94605;65.87661
31162;BME280;17796;49.296;-117.656;2022-12-07T04:04:25;96700;;;-6.11498;65.9024
31162;BME280;17796;49.296;-117.656;2022-12-07T04:19:31;96700;;;-5.79141;64.28182
31162;BME280;17796;49.296;-117.656;2022-12-07T04:34:35;96700;;;-5.20999;62.44661
31162;BME280;17796;49.296;-117.656;2022-12-07T04:49:39;96700;;;-5.9451;65.40114
31162;BME280;17796;49.296;-117.656;2022-12-07T05:04:43;96700;;;-5.20618;61.9158
31162;BME280;17796;49.296;-117.656;2022-12-07T05:19:46;96700;;;-6.05783;64.6638
31162;BME280;17796;49.296;-117.656;2022-12-07T05:34:50;96700;;;-5.36336;62.19326
31162;BME280;17796;49.296;-117.656;2022-12-07T05:49:54;96700;;;-5.3767;62.12743
31162;BME280;17796;49.296;-117.656;2022-12-07T06:04:58;96700;;;-5.18014;62.34552
31162;BME280;17796;49.296;-117.656;2022-12-07T06:20:02;96700;;;-5.1487;62.6076
31162;BME280;17796;49.296;-117.656;2022-12-07T06:35:07;96800;;;-5.75997;64.89502
31162;BME280;17796;49.296;-117.656;2022-12-07T06:50:11;96800;;;-5.6139;65.15387
31162;BME280;17796;49.296;-117.656;2022-12-07T07:05:15;96800;;;-5.81268;65.5942
31162;BME280;17796;49.296;-117.656;2022-12-07T07:20:19;96800;;;-5.05534;61.80036
31162;BME280;17796;49.296;-117.656;2022-12-07T07:35:23;96800;;;-4.318;59.01455
31162;BME280;17796;49.296;-117.656;2022-12-07T07:50:27;96800;;;-5.05217;61.27463
31162;BME280;17796;49.296;-117.656;2022-12-07T08:05:30;96800;;;-5.95907;64.98403
31162;BME280;17796;49.296;-117.656;2022-12-07T08:20:34;96800;;;-5.31414;63.31754
31162;BME280;17796;49.296;-117.656;2022-12-07T08:35:38;96800;;;-5.72695;64.38351
31162;BME280;17796;49.296;-117.656;2022-12-07T08:50:42;96800;;;-5.85619;64.90463
31162;BME280;17796;49.296;-117.656;2022-12-07T09:05:46;96800;;;-6.13054;65.84728
31162;BME280;17796;49.296;-117.656;2022-12-07T09:20:51;96800;;;-6.10927;65.0493
31162;BME280;17796;49.296;-117.656;2022-12-07T09:35:54;96800;;;-6.19913;65.20511
31162;BME280;17796;49.296;-117.656;2022-12-07T09:50:59;96800;;;-6.36743;65.90059
31162;BME280;17796;49.296;-117.656;2022-12-07T10:06:04;96900;;;-6.22676;66.05642
31162;BME280;17796;49.296;-117.656;2022-12-07T10:21:11;96900;;;-5.93049;65.73181
31162;BME280;17796;49.296;-117.656;2022-12-07T10:36:17;96900;;;-6.42363;65.96134
31162;BME280;17796;49.296;-117.656;2022-12-07T10:51:25;96900;;;-5.27381;61.60279
31162;BME280;17796;49.296;-117.656;2022-12-07T11:06:43;96900;;;-5.37067;61.51565
31162;BME280;17796;49.296;-117.656;2022-12-07T11:21:55;96900;;;-6.19119;64.80595
31162;BME280;17796;49.296;-117.656;2022-12-07T11:37:00;96900;;;-5.01756;60.54455
31162;BME280;17796;49.296;-117.656;2022-12-07T11:52:06;96900;;;-4.62507;61.05042
31162;BME280;17796;49.296;-117.656;2022-12-07T12:07:19;96900;;;-4.58474;62.64846
31162;BME280;17796;49.296;-117.656;2022-12-07T12:22:26;96900;;;-4.24783;62.91394
31162;BME280;17796;49.296;-117.656;2022-12-07T12:37:44;96900;;;-4.49837;64.45524
31162;BME280;17796;49.296;-117.656;2022-12-07T12:52:50;96900;;;-5.04614;62.61948
31162;BME280;17796;49.296;-117.656;2022-12-07T13:08:05;96900;;;-5.73838;63.90676
31162;BME280;17796;49.296;-117.656;2022-12-07T13:23:21;96900;;;-4.73399;64.86229
31162;BME280;17796;49.296;-117.656;2022-12-07T13:38:31;97000;;;-5.16267;61.34934
31162;BME280;17796;49.296;-117.656;2022-12-07T13:53:36;97000;;;-5.4564;62.19831
31162;BME280;17796;49.296;-117.656;2022-12-07T14:08:50;97000;;;-5.02105;61.17346
31162;BME280;17796;49.296;-117.656;2022-12-07T14:24:14;97000;;;-5.80157;62.31753
31162;BME280;17796;49.296;-117.656;2022-12-07T14:39:19;97000;;;-5.21285;60.11031
31162;BME280;17796;49.296;-117.656;2022-12-07T14:54:23;97000;;;-6.07656;63.15997
31162;BME280;17796;49.296;-117.656;2022-12-07T15:09:31;97000;;;-5.06138;58.88204
31162;BME280;17796;49.296;-117.656;2022-12-07T15:24:35;97000;;;-4.57903;58.01709
31162;BME280;17796;49.296;-117.656;2022-12-07T15:39:39;97000;;;-4.42375;58.06255
31162;BME280;17796;49.296;-117.656;2022-12-07T15:54:43;97000;;;-4.82131;58.79729
31162;BME280;17796;49.296;-117.656;2022-12-07T16:09:46;97100;;;-5.89747;62.49004
31162;BME280;17796;49.296;-117.656;2022-12-07T16:24:50;97100;;;-4.59586;57.22284
31162;BME280;17796;49.296;-117.656;2022-12-07T16:39:54;97100;;;-5.02041;58.52609
31162;BME280;17796;49.296;-117.656;2022-12-07T16:54:58;97100;;;-3.90646;55.24245
31162;BME280;17796;49.296;-117.656;2022-12-07T17:10:02;97100;;;-4.04047;54.96416
31162;BME280;17796;49.296;-117.656;2022-12-07T17:25:07;97100;;;-4.00077;57.45929
31162;BME280;17796;49.296;-117.656;2022-12-07T17:55:15;97100;;;-3.5435;55.33504
31162;BME280;17796;49.296;-117.656;2022-12-07T18:10:19;97100;;;-2.94048;54.70145
31162;BME280;17796;49.296;-117.656;2022-12-07T18:25:23;97100;;;-3.97505;55.8547
31162;BME280;17796;49.296;-117.656;2022-12-07T18:40:26;97100;;;-3.03257;55.82184
31162;BME280;17796;49.296;-117.656;2022-12-07T18:55:30;97100;;;-3.04749;55.76113
31162;BME280;17796;49.296;-117.656;2022-12-07T19:10:34;97100;;;-2.78329;56.85418
31162;BME280;17796;49.296;-117.656;2022-12-07T19:25:39;97100;;;-3.19356;57.16705
31162;BME280;17796;49.296;-117.656;2022-12-07T19:40:42;97100;;;-2.49336;57.38701
31162;BME280;17796;49.296;-117.656;2022-12-07T19:55:46;97000;;;-2.07197;56.93205
31162;BME280;17796;49.296;-117.656;2022-12-07T20:10:49;97000;;;-2.0761;53.73719
31162;BME280;17796;49.296;-117.656;2022-12-07T20:25:53;97000;;;-2.92015;59.80398
31162;BME280;17796;49.296;-117.656;2022-12-07T20:40:59;97000;;;-2.71057;56.02771
31162;BME280;17796;49.296;-117.656;2022-12-07T20:56:04;97000;;;-2.64928;58.94042
31162;BME280;17796;49.296;-117.656;2022-12-07T21:11:08;97000;;;-2.54893;57.17713
31162;BME280;17796;49.296;-117.656;2022-12-07T21:26:12;97000;;;-3.59145;58.36214
31162;BME280;17796;49.296;-117.656;2022-12-07T21:41:18;97000;;;-3.27295;58.41141
31162;BME280;17796;49.296;-117.656;2022-12-07T21:56:24;97000;;;-4.07476;60.00104
31162;BME280;17796;49.296;-117.656;2022-12-07T22:11:30;97000;;;-3.9325;60.22114
31162;BME280;17796;49.296;-117.656;2022-12-07T22:26:33;97000;;;-3.80961;56.74468
31162;BME280;17796;49.296;-117.656;2022-12-07T22:41:37;97000;;;-3.68418;57.56774
31162;BME280;17796;49.296;-117.656;2022-12-07T22:56:41;97000;;;-3.56097;58.02604
31162;BME280;17796;49.296;-117.656;2022-12-07T23:11:45;97000;;;-3.48571;57.21264
31162;BME280;17796;49.296;-117.656;2022-12-07T23:26:49;97000;;;-3.13926;57.99856
31162;BME280;17796;49.296;-117.656;2022-12-07T23:41:53;96900;;;-4.14272;60.70927
31162;BME280;17796;49.296;-117.656;2022-12-07T23:56:57;97000;;;-3.26851;58.42799
